Time;durP1;ratioP1;P1;durP2;ratioP2;P2;SDS_P1;SDS_P2;PMS_P1;PMS_P2;Temp;Humidity;BMP_temperature;BMP_pressure;BME280_temperature;BME280_humidity;BME280_pressure;Samples;Min_cycle;Max_cycle;Signal;HPM_P1;HPM_P2
2022/04/01 00:00:32;;;;;;;19.80;16.63;;;4.50;99.90;;;;;;6279517;22;20324;-77
2022/04/01 00:02:58;;;;;;;19.08;14.52;;;4.50;99.90;;;;;;6307126;22;20007;-76
2022/04/01 00:05:24;;;;;;;18.20;13.75;;;4.30;99.90;;;;;;6307423;22;20110;-76
2022/04/01 00:07:50;;;;;;;17.65;14.15;;;4.30;99.90;;;;;;6280492;22;20007;-76
2022/04/01 00:10:19;;;;;;;17.05;14.77;;;4.30;99.90;;;;;;6308013;22;20448;-76
2022/04/01 00:12:51;;;;;;;16.15;13.73;;;4.40;99.90;;;;;;6306724;22;20003;-76
2022/04/01 00:15:19;;;;;;;17.52;13.20;;;4.50;99.90;;;;;;6280146;22;20352;-76
2022/04/01 00:17:47;;;;;;;15.38;12.57;;;4.50;99.90;;;;;;6307631;22;20325;-76
2022/04/01 00:20:13;;;;;;;14.77;11.98;;;4.40;99.90;;;;;;6306797;22;20075;-77
2022/04/01 00:22:40;;;;;;;16.00;13.38;;;4.50;99.90;;;;;;6306761;22;19999;-76
2022/04/01 00:25:06;;;;;;;17.40;12.82;;;4.40;99.90;;;;;;6279543;22;20337;-77
2022/04/01 00:27:32;;;;;;;15.23;11.52;;;4.30;99.90;;;;;;6307601;22;19995;-76
2022/04/01 00:29:59;;;;;;;16.70;12.52;;;4.20;99.90;;;;;;6307899;22;19999;-76
2022/04/01 00:32:29;;;;;;;16.45;13.43;;;4.30;99.90;;;;;;6307472;22;20313;-76
2022/04/01 00:34:54;;;;;;;14.48;12.35;;;4.50;99.90;;;;;;6306792;22;20049;-77
2022/04/01 00:37:20;;;;;;;16.23;12.93;;;4.50;99.90;;;;;;6307067;22;20008;-76
2022/04/01 00:39:48;;;;;;;17.38;13.27;;;4.50;99.90;;;;;;6307719;22;20002;-76
2022/04/01 00:42:14;;;;;;;15.20;12.18;;;4.60;99.90;;;;;;6306157;22;20071;-76
2022/04/01 00:44:41;;;;;;;13.07;11.73;;;4.60;99.90;;;;;;6307559;22;20019;-76
2022/04/01 00:47:13;;;;;;;14.73;12.25;;;4.60;99.90;;;;;;6307466;22;20003;-76
2022/04/01 00:49:42;;;;;;;12.57;10.23;;;4.60;99.90;;;;;;6307720;22;20003;-76
2022/04/01 00:52:11;;;;;;;13.10;10.98;;;4.40;99.90;;;;;;6306320;22;20405;-76
2022/04/01 00:54:38;;;;;;;12.07;10.80;;;4.40;99.90;;;;;;6307389;22;20042;-76
2022/04/01 00:57:08;;;;;;;12.10;9.73;;;4.50;99.90;;;;;;6307316;22;20010;-76
2022/04/01 00:59:34;;;;;;;11.02;9.90;;;4.30;99.90;;;;;;6307483;22;19996;-76
2022/04/01 01:02:00;;;;;;;12.25;10.40;;;4.30;99.90;;;;;;6306671;22;20014;-76
2022/04/01 01:04:29;;;;;;;11.88;9.70;;;4.30;99.90;;;;;;6307346;22;20070;-76
2022/04/01 01:06:57;;;;;;;11.18;9.07;;;4.20;99.90;;;;;;6279115;22;20023;-76
2022/04/01 01:09:25;;;;;;;11.88;9.43;;;4.30;99.90;;;;;;6307384;22;20026;-76
2022/04/01 01:11:54;;;;;;;10.52;9.20;;;4.40;99.90;;;;;;6279722;22;20011;-76
2022/04/01 01:14:30;;;;;;;9.23;8.32;;;4.30;99.90;;;;;;6307261;22;20003;-76
2022/04/01 01:16:58;;;;;;;8.95;7.82;;;4.30;99.90;;;;;;6279667;22;20086;-76
2022/04/01 01:19:26;;;;;;;8.05;7.13;;;4.20;99.90;;;;;;6278209;22;20082;-75
2022/04/01 01:21:53;;;;;;;8.63;7.15;;;4.10;99.90;;;;;;6278826;22;20012;-74
2022/04/01 01:24:29;;;;;;;8.10;7.25;;;4.10;99.90;;;;;;6307030;22;20306;-74
2022/04/01 01:26:57;;;;;;;10.20;7.60;;;4.10;99.90;;;;;;6308997;22;20446;-74
2022/04/01 01:29:28;;;;;;;7.18;6.47;;;4.00;99.90;;;;;;6307149;22;20034;-75
2022/04/01 01:31:55;;;;;;;9.38;7.85;;;4.00;99.90;;;;;;6308554;22;20066;-75
2022/04/01 01:34:23;;;;;;;8.75;7.20;;;3.90;99.90;;;;;;6308826;22;20003;-75
2022/04/01 01:36:50;;;;;;;10.02;7.50;;;3.90;99.90;;;;;;6306786;22;20420;-74
2022/04/01 01:39:16;;;;;;;8.18;7.05;;;4.00;99.90;;;;;;6307693;22;20007;-74
2022/04/01 01:41:43;;;;;;;8.90;6.35;;;4.00;99.90;;;;;;6281236;22;20003;-74
2022/04/01 01:44:10;;;;;;;7.38;6.43;;;3.70;99.90;;;;;;6278778;22;20424;-74
2022/04/01 01:46:36;;;;;;;6.65;5.95;;;3.80;99.90;;;;;;6308346;22;20048;-74
2022/04/01 01:49:02;;;;;;;6.75;6.05;;;3.80;99.90;;;;;;6307091;22;20041;-74
2022/04/01 01:56:56;;;;;;;7.07;6.13;;;3.80;99.90;;;;;;6308489;22;20344;-74
2022/04/01 01:59:21;;;;;;;6.45;5.70;;;3.80;99.90;;;;;;6308360;22;19999;-75
2022/04/01 02:01:47;;;;;;;7.43;6.63;;;3.70;99.90;;;;;;6308675;22;20003;-74
2022/04/01 02:04:13;;;;;;;8.20;6.65;;;3.70;99.90;;;;;;6306287;22;20006;-74
2022/04/01 02:06:39;;;;;;;8.57;5.80;;;3.70;99.90;;;;;;6308436;22;20137;-74
2022/04/01 02:09:05;;;;;;;7.28;5.68;;;3.40;99.90;;;;;;6307100;22;20010;-74
2022/04/01 02:11:31;;;;;;;7.85;6.60;;;3.50;99.90;;;;;;6308168;22;20240;-75
2022/04/01 02:13:57;;;;;;;7.30;5.72;;;3.60;99.90;;;;;;6307903;22;20302;-75
2022/04/01 02:16:23;;;;;;;8.20;5.72;;;3.70;99.90;;;;;;6307964;22;20000;-75
2022/04/01 02:18:49;;;;;;;10.63;5.93;;;3.60;99.90;;;;;;6279039;22;20082;-75
2022/04/01 02:21:16;;;;;;;6.65;5.95;;;3.60;99.90;;;;;;6308217;22;20006;-75
2022/04/01 02:23:44;;;;;;;7.80;7.00;;;3.60;99.90;;;;;;6308252;22;20007;-75
2022/04/01 02:26:10;;;;;;;7.40;6.70;;;3.70;99.90;;;;;;6307412;22;20011;-75
2022/04/01 02:28:37;;;;;;;9.45;7.50;;;3.60;99.90;;;;;;6308293;22;20000;-75
2022/04/01 02:31:06;;;;;;;7.35;6.47;;;3.60;99.90;;;;;;6306977;22;20091;-75
2022/04/01 02:33:35;;;;;;;6.60;5.90;;;3.70;99.90;;;;;;6307936;22;20003;-75
2022/04/01 02:36:06;;;;;;;7.07;6.30;;;3.70;99.90;;;;;;6307000;22;20009;-75
2022/04/01 02:38:32;;;;;;;6.18;5.50;;;3.70;99.90;;;;;;6281214;22;19995;-75
2022/04/01 02:40:58;;;;;;;7.63;6.35;;;3.70;99.90;;;;;;6307719;22;19999;-75
2022/04/01 02:43:26;;;;;;;7.00;6.03;;;3.70;99.90;;;;;;6281155;22;20087;-76
2022/04/01 02:45:54;;;;;;;6.20;5.60;;;3.70;99.90;;;;;;6308258;22;19999;-75
2022/04/01 02:48:20;;;;;;;7.05;5.80;;;3.80;99.90;;;;;;6308060;22;20003;-76
2022/04/01 02:50:48;;;;;;;6.40;5.70;;;3.60;99.90;;;;;;6308735;22;19999;-76
2022/04/01 02:53:16;;;;;;;9.25;6.32;;;3.50;99.90;;;;;;6308809;22;19999;-76
2022/04/01 02:55:44;;;;;;;5.65;5.15;;;3.60;99.90;;;;;;6307520;22;20061;-76
2022/04/01 02:58:10;;;;;;;7.28;6.43;;;3.60;99.90;;;;;;6308535;22;20022;-76
2022/04/01 03:00:39;;;;;;;9.00;6.82;;;3.60;99.90;;;;;;6308813;22;20317;-76
2022/04/01 03:03:07;;;;;;;7.70;6.40;;;3.50;99.90;;;;;;6307165;22;20056;-76
2022/04/01 03:05:37;;;;;;;9.27;6.53;;;3.60;99.90;;;;;;6308349;22;20033;-76
2022/04/01 03:08:05;;;;;;;6.97;5.57;;;3.60;99.90;;;;;;6307849;22;20007;-76
2022/04/01 03:10:35;;;;;;;6.03;5.43;;;3.70;99.90;;;;;;6280965;22;20027;-76
2022/04/01 03:13:02;;;;;;;6.57;5.88;;;3.70;99.90;;;;;;6307612;22;20003;-76
2022/04/01 03:15:32;;;;;;;6.50;5.55;;;3.60;99.90;;;;;;6307622;22;20073;-76
2022/04/01 03:17:58;;;;;;;6.95;6.32;;;3.50;99.90;;;;;;6307376;22;19996;-75
2022/04/01 03:20:25;;;;;;;6.95;6.25;;;3.60;99.90;;;;;;6278798;22;20045;-75
2022/04/01 03:22:52;;;;;;;6.60;5.88;;;3.60;99.90;;;;;;6306377;22;20041;-75
2022/04/01 03:25:19;;;;;;;6.63;6.03;;;3.60;99.90;;;;;;6307006;22;20011;-75
2022/04/01 03:27:48;;;;;;;7.75;5.85;;;3.60;99.90;;;;;;6307905;22;20074;-74
2022/04/01 03:30:16;;;;;;;6.00;5.43;;;3.60;99.90;;;;;;6307479;22;19999;-75
2022/04/01 03:32:45;;;;;;;6.45;5.85;;;3.60;99.90;;;;;;6307576;22;20038;-75
2022/04/01 03:35:17;;;;;;;5.80;5.20;;;3.60;99.90;;;;;;6307595;22;20026;-75
2022/04/01 03:37:45;;;;;;;7.20;5.80;;;3.60;99.90;;;;;;6306767;22;20417;-75
2022/04/01 03:40:14;;;;;;;6.95;5.65;;;3.70;99.90;;;;;;6307672;22;20006;-75
2022/04/01 03:42:44;;;;;;;5.68;5.20;;;3.60;99.90;;;;;;6307973;22;20413;-75
2022/04/01 03:45:12;;;;;;;6.53;5.63;;;3.40;99.90;;;;;;6307696;22;20027;-74
2022/04/01 03:48:04;;;;;;;8.07;6.45;;;3.50;99.90;;;;;;6307327;22;19999;-74
2022/04/01 03:50:32;;;;;;;6.37;5.77;;;3.40;99.90;;;;;;6306281;22;20022;-75
2022/04/01 03:53:09;;;;;;;7.40;6.72;;;3.30;99.90;;;;;;6307162;22;19999;-74
2022/04/01 03:55:38;;;;;;;7.28;6.47;;;3.50;99.90;;;;;;6307402;22;20012;-74
2022/04/01 03:58:11;;;;;;;7.25;6.55;;;3.50;99.90;;;;;;6307907;22;20010;-74
2022/04/01 04:00:38;;;;;;;6.32;5.65;;;3.60;99.90;;;;;;6307348;22;20006;-74
2022/04/01 04:03:06;;;;;;;7.43;5.55;;;3.50;99.90;;;;;;6280040;22;20014;-74
2022/04/01 04:05:34;;;;;;;5.95;5.35;;;3.30;99.90;;;;;;6278158;22;20017;-74
2022/04/01 04:08:01;;;;;;;7.05;6.43;;;3.40;99.90;;;;;;6306805;22;20006;-74
2022/04/01 04:10:29;;;;;;;5.97;5.45;;;3.30;99.90;;;;;;6306041;22;20003;-74
2022/04/01 04:12:57;;;;;;;6.03;5.43;;;3.40;99.90;;;;;;6306667;22;20003;-74
2022/04/01 04:15:29;;;;;;;7.20;5.78;;;3.30;99.90;;;;;;6306200;22;20056;-74
2022/04/01 04:18:01;;;;;;;6.32;5.68;;;3.30;99.90;;;;;;6306802;22;20000;-74
2022/04/01 04:20:41;;;;;;;;;;;3.40;99.90;;;;;;6280204;22;20515;-71
2022/04/01 04:23:19;;;;;;;6.20;5.60;;;3.40;99.90;;;;;;6307308;22;19902;-74
2022/04/01 04:26:04;;;;;;;6.13;5.53;;;3.40;99.90;;;;;;6278735;22;20445;-74
2022/04/01 04:28:34;;;;;;;8.20;5.53;;;3.20;99.90;;;;;;6307088;22;20023;-74
2022/04/01 04:31:04;;;;;;;5.82;5.20;;;3.30;99.90;;;;;;6305257;22;20003;-74
2022/04/01 04:33:33;;;;;;;5.95;5.35;;;3.20;99.90;;;;;;6306777;22;20082;-74
2022/04/01 04:36:04;;;;;;;6.40;5.80;;;3.20;99.90;;;;;;6307148;22;20082;-73
2022/04/01 04:38:39;;;;;;;6.30;5.70;;;3.30;99.90;;;;;;6307063;22;19995;-74
2022/04/01 04:41:08;;;;;;;7.50;5.57;;;3.30;99.90;;;;;;6306412;22;20004;-74
2022/04/01 04:43:40;;;;;;;6.88;5.28;;;3.30;99.90;;;;;;6306543;22;20363;-73
2022/04/01 04:46:06;;;;;;;6.80;5.93;;;3.30;99.90;;;;;;6307591;22;20026;-74
2022/04/01 04:48:39;;;;;;;7.95;6.15;;;3.30;99.90;;;;;;6306639;22;20234;-73
2022/04/01 04:51:08;;;;;;;8.45;6.05;;;3.30;99.90;;;;;;6308005;22;20057;-74
2022/04/01 04:53:35;;;;;;;7.78;6.43;;;3.10;99.90;;;;;;6305783;22;20010;-73
2022/04/01 04:56:04;;;;;;;6.63;5.57;;;3.00;99.90;;;;;;6306485;22;20008;-74
2022/04/01 04:58:39;;;;;;;7.75;6.50;;;3.10;99.90;;;;;;6306968;22;19999;-74
2022/04/01 05:01:29;;;;;;;7.38;6.57;;;3.10;99.90;;;;;;6309983;22;20023;-73
2022/04/01 05:04:12;;;;;;;10.35;6.80;;;3.20;99.90;;;;;;6309157;22;20056;-74
2022/04/01 05:06:40;;;;;;;;;;;3.20;99.90;;;;;;6310888;22;20329;-73
2022/04/01 05:09:40;;;;;;;7.82;6.78;;;3.00;99.90;;;;;;6308719;22;19910;-74
2022/04/01 05:12:34;;;;;;;7.75;7.00;;;3.20;99.90;;;;;;6309649;22;19999;-73
2022/04/01 05:15:09;;;;;;;8.73;7.60;;;3.20;99.90;;;;;;6282823;22;20390;-74
2022/04/01 05:17:43;;;;;;;10.80;8.20;;;3.10;99.90;;;;;;6310496;22;20316;-74
2022/04/01 05:20:16;;;;;;;9.48;7.60;;;3.20;99.90;;;;;;6310784;22;19995;-74
2022/04/01 05:22:48;;;;;;;9.27;7.72;;;3.00;99.90;;;;;;6308924;22;20011;-74
2022/04/01 05:25:18;;;;;;;8.45;7.60;;;3.10;99.90;;;;;;6310166;22;20375;-74
2022/04/01 05:27:48;;;;;;;7.07;6.38;;;3.20;99.90;;;;;;6280806;22;19996;-74
2022/04/01 05:30:18;;;;;;;9.57;7.00;;;3.10;99.90;;;;;;6310301;22;19999;-74
2022/04/01 05:33:06;;;;;;;7.30;6.60;;;3.20;99.90;;;;;;6310452;22;19995;-74
2022/04/01 05:35:37;;;;;;;10.77;7.18;;;3.10;99.90;;;;;;6310470;22;20003;-74
2022/04/01 05:38:04;;;;;;;8.10;6.68;;;3.10;99.90;;;;;;6308692;22;20417;-74
2022/04/01 05:40:31;;;;;;;7.45;6.43;;;3.20;99.90;;;;;;6310258;22;19999;-74
2022/04/01 05:42:58;;;;;;;8.75;7.60;;;3.20;99.90;;;;;;6281391;22;20060;-74
2022/04/01 05:45:27;;;;;;;7.40;6.70;;;3.20;99.90;;;;;;6310023;22;20003;-74
2022/04/01 05:47:54;;;;;;;6.78;6.07;;;3.20;99.90;;;;;;6308767;22;20066;-74
2022/04/01 05:50:21;;;;;;;6.65;5.65;;;3.20;99.90;;;;;;6309622;22;20002;-75
2022/04/01 05:52:48;;;;;;;8.23;6.30;;;3.10;99.90;;;;;;6282644;22;20006;-74
2022/04/01 05:55:16;;;;;;;8.70;6.28;;;3.10;99.90;;;;;;6309151;22;20604;-75
2022/04/01 05:57:42;;;;;;;9.65;7.55;;;3.00;99.90;;;;;;6308629;22;20006;-75
2022/04/01 06:00:12;;;;;;;7.50;6.68;;;3.00;99.90;;;;;;6308911;22;20004;-75
2022/04/01 06:03:16;;;;;;;7.47;6.25;;;3.00;99.90;;;;;;6308873;22;20031;-74
2022/04/01 06:06:02;;;;;;;7.57;6.47;;;2.90;99.90;;;;;;6308878;22;20014;-75
2022/04/01 06:08:44;;;;;;;6.25;5.50;;;2.90;99.90;;;;;;6309742;22;20003;-75
2022/04/01 06:11:10;;;;;;;7.75;6.65;;;2.90;99.90;;;;;;6307533;22;20324;-75
2022/04/01 06:13:40;;;;;;;7.18;6.40;;;2.90;99.90;;;;;;6308384;22;19999;-75
2022/04/01 06:16:43;;;;;;;11.18;6.95;;;2.90;99.90;;;;;;6308893;22;20023;-75
2022/04/01 06:19:17;;;;;;;;;;;3.10;99.90;;;;;;6301892;22;20003;-75
2022/04/01 06:21:52;;;;;;;9.35;6.90;;;3.10;99.90;;;;;;6308796;22;20334;-75
2022/04/01 06:24:32;;;;;;;7.25;6.55;;;3.10;99.90;;;;;;6308392;22;20008;-75
2022/04/01 06:27:02;;;;;;;8.82;6.70;;;3.10;99.90;;;;;;6280232;22;20007;-76
2022/04/01 06:29:41;;;;;;;8.70;6.80;;;3.00;99.90;;;;;;6307822;22;20026;-76
2022/04/01 06:32:41;;;;;;;10.80;7.13;;;3.10;99.90;;;;;;6279972;22;19999;-76
2022/04/01 06:35:27;;;;;;;9.63;7.47;;;3.10;99.90;;;;;;6198004;22;20005;-77
2022/04/01 06:38:05;;;;;;;11.10;7.97;;;3.10;99.90;;;;;;6307777;22;19999;-76
2022/04/01 06:40:52;;;;;;;11.20;8.15;;;3.10;99.90;;;;;;6280895;22;20007;-76
2022/04/01 06:43:19;;;;;;;12.07;8.50;;;3.10;99.90;;;;;;6280602;22;20029;-76
2022/04/01 06:45:45;;;;;;;13.15;8.73;;;3.10;99.90;;;;;;6308522;22;20004;-76
2022/04/01 06:48:11;;;;;;;12.02;9.48;;;3.20;99.90;;;;;;6307808;22;20042;-76
2022/04/01 06:50:38;;;;;;;10.05;8.80;;;3.30;99.90;;;;;;6308224;22;20003;-75
2022/04/01 06:53:05;;;;;;;11.95;9.63;;;3.20;99.90;;;;;;6280338;22;20004;-75
2022/04/01 06:55:31;;;;;;;15.73;10.43;;;3.10;99.90;;;;;;6280870;22;20011;-75
2022/04/01 06:57:56;;;;;;;11.20;9.43;;;3.10;99.90;;;;;;6307868;22;20427;-75
2022/04/01 07:00:23;;;;;;;13.27;9.60;;;3.20;99.90;;;;;;6308143;22;20049;-75
2022/04/01 07:02:49;;;;;;;13.43;9.88;;;3.20;99.90;;;;;;6307572;22;20164;-75
2022/04/01 07:05:16;;;;;;;10.88;8.65;;;3.20;99.90;;;;;;6280653;22;20436;-75
2022/04/01 07:07:42;;;;;;;13.40;8.50;;;3.30;99.90;;;;;;6307934;22;20003;-75
2022/04/01 07:10:11;;;;;;;11.10;8.90;;;3.30;99.90;;;;;;6306283;22;20022;-75
2022/04/01 07:12:37;;;;;;;12.88;8.90;;;3.20;99.90;;;;;;6283333;22;20057;-75
2022/04/01 07:15:04;;;;;;;10.73;8.73;;;3.20;99.90;;;;;;6312333;22;19995;-75
2022/04/01 07:17:29;;;;;;;10.63;8.45;;;3.20;99.90;;;;;;6305454;22;20006;-75
2022/04/01 07:19:58;;;;;;;10.70;7.75;;;3.40;99.90;;;;;;6306930;22;19999;-76
2022/04/01 07:22:25;;;;;;;15.25;8.82;;;3.20;99.90;;;;;;6306801;22;19999;-76
2022/04/01 07:24:50;;;;;;;10.95;8.52;;;3.20;99.90;;;;;;6306353;22;19995;-76
2022/04/01 07:27:17;;;;;;;11.75;7.68;;;3.20;99.90;;;;;;6306275;22;20007;-76
2022/04/01 07:29:43;;;;;;;11.40;8.55;;;3.20;99.90;;;;;;6307059;22;20075;-76
2022/04/01 07:34:55;;;;;;;12.18;8.10;;;3.30;99.90;;;;;;6305843;22;20018;-75
2022/04/01 07:37:23;;;;;;;12.00;8.57;;;3.20;99.90;;;;;;6307413;22;20011;-75
2022/04/01 07:39:51;;;;;;;10.75;8.05;;;3.10;99.90;;;;;;6307203;22;20429;-75
2022/04/01 07:42:18;;;;;;;11.40;9.00;;;3.10;99.90;;;;;;6305408;22;20416;-75
2022/04/01 07:44:45;;;;;;;13.20;8.82;;;3.20;99.90;;;;;;6279677;22;19995;-75
2022/04/01 07:47:14;;;;;;;9.75;8.05;;;3.20;99.90;;;;;;6278627;22;20010;-75
2022/04/01 07:49:41;;;;;;;9.60;7.75;;;3.10;99.90;;;;;;6306748;22;19999;-75
2022/04/01 07:52:08;;;;;;;10.45;7.45;;;3.10;99.90;;;;;;6306449;22;20026;-75
2022/04/01 07:54:35;;;;;;;12.15;7.93;;;3.20;99.90;;;;;;6306497;22;20050;-75
2022/04/01 07:57:03;;;;;;;8.82;7.20;;;3.10;99.90;;;;;;6305550;22;20025;-75
2022/04/01 07:59:29;;;;;;;10.48;7.70;;;3.20;99.90;;;;;;6306978;22;20006;-75
2022/04/01 08:01:55;;;;;;;11.68;7.20;;;3.10;99.90;;;;;;6278849;22;20082;-75
2022/04/01 08:04:21;;;;;;;10.57;6.80;;;3.30;99.90;;;;;;6306960;22;20140;-75
2022/04/01 08:06:47;;;;;;;8.57;7.00;;;3.20;99.90;;;;;;6278022;22;20114;-75
2022/04/01 08:09:12;;;;;;;11.18;7.00;;;3.00;99.90;;;;;;6306264;22;20321;-74
2022/04/01 08:11:40;;;;;;;12.80;7.07;;;3.00;99.90;;;;;;6307210;22;20059;-75
2022/04/01 08:14:06;;;;;;;10.88;7.50;;;3.10;99.90;;;;;;6305925;22;20003;-74
2022/04/01 08:16:32;;;;;;;9.38;7.35;;;3.10;99.90;;;;;;6278770;22;20003;-74
2022/04/01 08:18:58;;;;;;;15.10;7.55;;;3.00;99.90;;;;;;6306391;22;19996;-74
2022/04/01 08:21:23;;;;;;;9.40;7.40;;;3.10;99.90;;;;;;6278053;22;20006;-74
2022/04/01 08:23:49;;;;;;;11.88;7.18;;;3.20;99.90;;;;;;6305212;22;20002;-74
2022/04/01 08:26:15;;;;;;;9.35;6.30;;;3.20;99.90;;;;;;6278257;22;20003;-75
2022/04/01 08:28:40;;;;;;;11.18;7.43;;;3.20;99.90;;;;;;6278055;22;20006;-74
2022/04/01 08:31:08;;;;;;;9.82;7.93;;;3.30;99.90;;;;;;6306896;22;20380;-74
2022/04/01 08:33:34;;;;;;;9.38;7.68;;;3.20;99.90;;;;;;6277331;22;20019;-74
2022/04/01 08:36:02;;;;;;;9.25;6.88;;;3.20;99.90;;;;;;6278710;22;20465;-74
2022/04/01 08:38:29;;;;;;;11.27;6.95;;;3.20;99.90;;;;;;6305784;22;19995;-74
2022/04/01 08:40:55;;;;;;;9.63;6.45;;;3.20;99.90;;;;;;6306639;22;20317;-74
2022/04/01 08:43:26;;;;;;;11.38;7.43;;;3.30;99.90;;;;;;6279011;22;19995;-75
2022/04/01 08:45:52;;;;;;;12.35;6.72;;;3.30;99.90;;;;;;6306286;22;20007;-73
2022/04/01 08:48:18;;;;;;;7.55;6.30;;;3.30;99.90;;;;;;6304554;22;20069;-74
2022/04/01 08:50:44;;;;;;;8.60;6.55;;;3.30;99.90;;;;;;6305871;22;20452;-74
2022/04/01 08:53:10;;;;;;;9.40;6.57;;;3.20;99.90;;;;;;6277336;22;20033;-74
2022/04/01 08:55:37;;;;;;;10.48;7.20;;;3.20;99.90;;;;;;6278183;22;20386;-74
2022/04/01 08:58:03;;;;;;;8.20;6.25;;;3.40;99.90;;;;;;6306282;22;20000;-74
2022/04/01 09:00:29;;;;;;;7.70;6.10;;;3.30;99.90;;;;;;6305605;22;20305;-74
2022/04/01 09:03:00;;;;;;;8.63;5.90;;;3.20;99.90;;;;;;6304642;22;20003;-73
2022/04/01 09:05:26;;;;;;;8.30;5.57;;;3.30;99.90;;;;;;6305603;22;20003;-74
2022/04/01 09:08:03;;;;;;;7.53;6.15;;;3.30;99.90;;;;;;6305612;22;20006;-74
2022/04/01 09:10:30;;;;;;;8.75;6.15;;;3.30;99.90;;;;;;6306653;22;20027;-73
2022/04/01 09:12:57;;;;;;;9.73;6.18;;;3.30;99.90;;;;;;6306270;22;20417;-74
2022/04/01 09:15:37;;;;;;;6.68;5.07;;;3.20;99.90;;;;;;6306153;22;19999;-73
2022/04/01 09:18:03;;;;;;;7.90;5.65;;;3.30;99.90;;;;;;6305798;22;20026;-75
2022/04/01 09:20:42;;;;;;;9.13;6.18;;;3.30;99.90;;;;;;6305529;22;19995;-75
2022/04/01 09:23:09;;;;;;;5.82;5.20;;;3.30;99.90;;;;;;6307067;22;20301;-75
2022/04/01 09:25:34;;;;;;;7.70;5.72;;;3.40;99.90;;;;;;6306199;22;20034;-75
2022/04/01 09:28:00;;;;;;;6.25;5.40;;;3.30;99.90;;;;;;6307085;22;19999;-75
2022/04/01 09:30:30;;;;;;;6.82;5.32;;;3.20;99.90;;;;;;6278995;22;20031;-75
2022/04/01 09:33:01;;;;;;;9.40;5.03;;;3.20;99.90;;;;;;6306439;22;19999;-75
2022/04/01 09:35:33;;;;;;;7.80;5.20;;;3.30;99.90;;;;;;6306023;22;20003;-75
2022/04/01 09:38:04;;;;;;;8.25;4.40;;;3.40;99.90;;;;;;6306561;22;20030;-75
2022/04/01 09:40:30;;;;;;;8.98;5.38;;;3.30;99.90;;;;;;6279133;22;20009;-75
2022/04/01 09:43:02;;;;;;;6.28;4.85;;;3.30;99.90;;;;;;6279545;22;20003;-76
2022/04/01 09:45:31;;;;;;;5.25;4.65;;;3.30;99.90;;;;;;6307332;22;20034;-75
2022/04/01 09:48:01;;;;;;;6.60;4.80;;;3.40;99.90;;;;;;6305479;22;20070;-76
2022/04/01 09:50:32;;;;;;;6.00;4.68;;;3.40;99.90;;;;;;6308118;22;20073;-75
2022/04/01 09:53:12;;;;;;;8.52;5.25;;;3.40;99.90;;;;;;6307676;22;20006;-75
2022/04/01 09:55:41;;;;;;;5.63;5.03;;;3.30;99.90;;;;;;6307733;22;19999;-75
2022/04/01 09:58:08;;;;;;;6.82;4.35;;;3.40;99.90;;;;;;6307835;22;20053;-75
2022/04/01 10:00:36;;;;;;;5.60;5.05;;;3.30;99.90;;;;;;6308038;22;20004;-76
2022/04/01 10:03:03;;;;;;;6.65;4.50;;;3.40;99.90;;;;;;6279022;22;20419;-75
2022/04/01 10:05:29;;;;;;;8.68;4.00;;;3.50;99.90;;;;;;6306743;22;19995;-76
2022/04/01 10:07:57;;;;;;;6.65;4.07;;;3.50;99.90;;;;;;6308215;22;19999;-75
2022/04/01 10:10:25;;;;;;;5.63;4.22;;;3.50;99.90;;;;;;6307629;22;20003;-76
2022/04/01 10:12:52;;;;;;;4.53;4.03;;;3.60;99.90;;;;;;6279360;22;20006;-76
2022/04/01 10:15:19;;;;;;;7.70;3.90;;;3.60;99.90;;;;;;6308907;22;19999;-76
2022/04/01 10:17:46;;;;;;;7.80;3.70;;;3.70;99.90;;;;;;6307834;22;20004;-76
2022/04/01 10:20:15;;;;;;;8.02;3.90;;;3.70;99.90;;;;;;6308401;22;20004;-76
2022/04/01 10:22:48;;;;;;;7.80;3.78;;;3.80;99.90;;;;;;6308920;22;20090;-76
2022/04/01 10:25:32;;;;;;;7.32;4.13;;;3.80;99.90;;;;;;6308520;22;19999;-76
2022/04/01 10:28:02;;;;;;;5.38;3.38;;;3.80;99.90;;;;;;6281088;22;20469;-76
2022/04/01 10:30:34;;;;;;;4.18;3.78;;;3.80;99.90;;;;;;6308459;22;19999;-76
2022/04/01 10:33:07;;;;;;;7.53;4.93;;;3.60;99.90;;;;;;6308086;22;20006;-76
2022/04/01 10:35:38;;;;;;;5.60;3.88;;;3.60;99.90;;;;;;6308994;22;20379;-76
2022/04/01 10:38:09;;;;;;;6.88;4.20;;;3.70;99.90;;;;;;6308254;22;20003;-76
2022/04/01 10:40:44;;;;;;;5.77;4.40;;;3.70;99.90;;;;;;6281490;22;20003;-76
2022/04/01 10:43:11;;;;;;;5.97;4.20;;;3.80;99.90;;;;;;6307815;22;19995;-77
2022/04/01 10:45:55;;;;;;;5.63;4.63;;;3.90;99.90;;;;;;6307337;22;20022;-76
2022/04/01 10:51:37;;;;;;;9.75;4.88;;;4.00;99.90;;;;;;6308040;22;20493;-76
2022/04/01 10:54:24;;;;;;;4.95;4.05;;;4.10;99.90;;;;;;6308382;22;19995;-76
2022/04/01 10:57:05;;;;;;;6.40;3.85;;;4.00;99.90;;;;;;6286824;22;20412;-76
2022/04/01 10:59:44;;;;;;;7.20;3.85;;;4.10;99.90;;;;;;6308199;22;19999;-77
2022/04/01 11:02:40;;;;;;;5.03;4.13;;;4.10;99.90;;;;;;6280949;22;20015;-77
2022/04/01 11:05:29;;;;;;;5.60;3.88;;;4.10;99.90;;;;;;6308378;22;20318;-78
2022/04/01 11:08:17;;;;;;;5.30;3.55;;;4.00;99.90;;;;;;6307597;22;19995;-77
2022/04/01 11:14:21;;;;;;;5.35;3.63;;;4.10;99.90;;;;;;6308088;22;20424;-77
2022/04/01 11:16:50;;;;;;;6.55;4.15;;;4.20;99.90;;;;;;6307699;22;20006;-77
2022/04/01 11:19:28;;;;;;;6.72;4.07;;;4.20;99.90;;;;;;6280087;22;20088;-78
2022/04/01 11:21:54;;;;;;;6.63;3.88;;;4.20;99.90;;;;;;6307877;22;20006;-78
2022/04/01 11:24:33;;;;;;;5.57;4.20;;;4.30;99.90;;;;;;6308044;22;19999;-78
2022/04/01 11:27:23;;;;;;;5.65;4.07;;;4.20;99.90;;;;;;6281243;22;20007;-78
2022/04/01 11:30:09;;;;;;;6.25;4.18;;;4.20;99.90;;;;;;6280893;22;20336;-78
2022/04/01 11:32:40;;;;;;;5.03;3.78;;;4.20;99.90;;;;;;6280704;22;20003;-78
2022/04/01 11:35:11;;;;;;;4.97;4.10;;;4.30;99.90;;;;;;6308389;22;19999;-78
2022/04/01 11:37:39;;;;;;;8.07;4.32;;;4.30;99.90;;;;;;6307337;22;20004;-73
2022/04/01 11:40:19;;;;;;;5.65;4.22;;;4.40;99.90;;;;;;6305198;22;20424;-73
2022/04/01 11:43:04;;;;;;;5.57;4.55;;;4.30;99.90;;;;;;6307032;22;20005;-74
2022/04/01 11:45:33;;;;;;;7.00;5.00;;;4.20;99.90;;;;;;6305833;22;20000;-73
2022/04/01 11:48:00;;;;;;;7.32;5.00;;;4.30;99.90;;;;;;6279608;22;20068;-74
2022/04/01 11:50:26;;;;;;;8.93;4.63;;;4.30;99.90;;;;;;6304608;22;19995;-74
2022/04/01 11:52:55;;;;;;;8.82;5.50;;;4.30;99.90;;;;;;6279342;22;20193;-74
2022/04/01 11:55:26;;;;;;;7.05;4.47;;;4.30;99.90;;;;;;6307495;22;20003;-74
2022/04/01 11:57:54;;;;;;;7.00;5.57;;;4.10;99.90;;;;;;6306792;22;20007;-74
2022/04/01 12:00:22;;;;;;;6.45;4.78;;;4.20;99.90;;;;;;6305194;22;20003;-73
2022/04/01 12:02:52;;;;;;;10.10;4.65;;;4.30;99.90;;;;;;6307026;22;19999;-73
2022/04/01 12:05:19;;;;;;;5.70;4.03;;;4.20;99.90;;;;;;6305151;22;20007;-73
2022/04/01 12:10:40;;;;;;;8.10;4.90;;;4.10;99.90;;;;;;6305530;22;20014;-74
2022/04/01 12:13:09;;;;;;;7.40;4.75;;;4.20;99.90;;;;;;6278168;22;20003;-74
2022/04/01 12:15:43;;;;;;;7.68;4.97;;;4.20;99.90;;;;;;6305292;22;20053;-73
2022/04/01 12:18:15;;;;;;;7.20;4.90;;;4.20;99.90;;;;;;6306629;22;20003;-73
2022/04/01 12:20:43;;;;;;;7.22;5.18;;;4.20;99.90;;;;;;6307165;22;20447;-73
2022/04/01 12:23:09;;;;;;;5.38;4.63;;;4.20;99.90;;;;;;6306683;22;20005;-74
2022/04/01 12:25:37;;;;;;;6.78;4.63;;;4.10;99.90;;;;;;6306945;22;20006;-73
2022/04/01 12:28:08;;;;;;;6.85;4.72;;;4.20;99.90;;;;;;6305742;22;20010;-74
2022/04/01 12:30:44;;;;;;;7.50;5.00;;;4.10;99.90;;;;;;6306351;22;20497;-74
2022/04/01 12:33:25;;;;;;;5.45;4.65;;;4.20;99.90;;;;;;6306465;22;20075;-73
2022/04/01 12:36:02;;;;;;;8.38;4.72;;;4.20;99.90;;;;;;6302237;22;20140;-73
2022/04/01 12:38:31;;;;;;;6.43;4.55;;;4.20;99.90;;;;;;6279640;22;20003;-74
2022/04/01 12:41:00;;;;;;;6.95;5.20;;;4.10;99.90;;;;;;6305051;22;20007;-74
2022/04/01 12:43:40;;;;;;;7.47;5.05;;;4.20;99.90;;;;;;6305943;22;20003;-74
2022/04/01 12:46:07;;;;;;;7.47;4.97;;;4.20;99.90;;;;;;6305324;22;19999;-73
2022/04/01 12:49:19;;;;;;;5.30;4.50;;;4.20;99.90;;;;;;6305552;22;20082;-74
2022/04/01 12:51:57;;;;;;;6.72;4.78;;;4.20;99.90;;;;;;6248104;22;20004;-74
2022/04/01 12:54:32;;;;;;;8.25;4.88;;;4.20;99.90;;;;;;6279205;22;19999;-74
2022/04/01 12:57:03;;;;;;;9.90;5.30;;;4.20;99.90;;;;;;6275799;22;20007;-74
2022/04/01 12:59:37;;;;;;;6.88;5.30;;;4.30;99.90;;;;;;6307025;22;20008;-74
2022/04/01 13:02:08;;;;;;;7.50;5.07;;;4.20;99.90;;;;;;6304498;22;20006;-74
2022/04/01 13:04:46;;;;;;;4.97;4.43;;;4.20;99.90;;;;;;6306531;22;20076;-74
2022/04/01 13:07:18;;;;;;;8.07;5.28;;;4.30;99.90;;;;;;6306308;22;20230;-74
2022/04/01 13:09:44;;;;;;;11.05;5.78;;;4.30;99.90;;;;;;6305094;22;20089;-74
2022/04/01 13:12:10;;;;;;;7.32;4.80;;;4.30;99.90;;;;;;6305986;22;20482;-73
2022/04/01 13:14:36;;;;;;;5.63;4.90;;;4.30;99.90;;;;;;6277522;22;20049;-74
2022/04/01 13:17:13;;;;;;;8.60;5.72;;;4.20;99.90;;;;;;6306292;22;20008;-74
2022/04/01 13:19:42;;;;;;;7.68;5.43;;;4.30;99.90;;;;;;6306125;22;20354;-74
2022/04/01 13:22:08;;;;;;;5.50;5.00;;;4.30;99.90;;;;;;6308758;22;19996;-74
2022/04/01 13:24:43;;;;;;;8.20;5.22;;;4.20;99.90;;;;;;6307219;22;20059;-74
2022/04/01 13:27:14;;;;;;;8.95;5.35;;;4.30;99.90;;;;;;6308518;22;20333;-74
2022/04/01 13:29:41;;;;;;;10.52;6.35;;;4.30;99.90;;;;;;6308626;22;20472;-74